createdAt,value
2023-11-07T00:01:29.076Z,3.12
2023-11-07T00:04:08.629Z,3.10
2023-11-07T00:06:35.695Z,3.08
2023-11-07T00:09:03.136Z,3.06
2023-11-07T00:11:30.097Z,3.06
2023-11-07T00:13:57.030Z,3.06
2023-11-07T00:16:26.254Z,3.07
2023-11-07T00:18:53.176Z,3.07
2023-11-07T00:21:22.991Z,3.08
2023-11-07T00:23:49.969Z,3.09
2023-11-07T00:26:18.964Z,3.11
2023-11-07T00:28:47.927Z,3.12
2023-11-07T00:31:14.853Z,3.13
2023-11-07T00:33:41.707Z,3.16
2023-11-07T00:36:12.052Z,3.19
2023-11-07T00:38:42.243Z,3.22
2023-11-07T00:41:09.323Z,3.25
2023-11-07T00:43:36.229Z,3.27
2023-11-07T00:46:04.180Z,3.28
2023-11-07T00:48:31.227Z,3.27
2023-11-07T00:51:00.444Z,3.27
2023-11-07T00:53:27.916Z,3.27
2023-11-07T00:55:54.849Z,3.27
2023-11-07T00:58:21.749Z,3.28
2023-11-07T01:00:49.209Z,3.30
2023-11-07T01:03:16.204Z,3.32
2023-11-07T01:05:43.259Z,3.33
2023-11-07T01:08:10.217Z,3.33
2023-11-07T01:10:37.050Z,3.32
2023-11-07T01:13:04.297Z,3.31
2023-11-07T01:15:31.165Z,3.31
2023-11-07T01:17:58.310Z,3.32
2023-11-07T01:20:25.415Z,3.35
2023-11-07T01:22:52.423Z,3.36
2023-11-07T01:25:19.428Z,3.39
2023-11-07T01:27:46.318Z,3.41
2023-11-07T01:30:14.017Z,3.41
2023-11-07T01:32:43.021Z,3.41
2023-11-07T01:35:10.201Z,3.40
2023-11-07T01:37:37.182Z,3.41
2023-11-07T01:40:04.906Z,3.47
2023-11-07T01:42:32.005Z,3.49
2023-11-07T01:45:00.333Z,3.48
2023-11-07T01:47:27.292Z,3.47
2023-11-07T01:49:54.307Z,3.46
2023-11-07T01:52:21.858Z,3.45
2023-11-07T01:54:52.741Z,3.42
2023-11-07T01:57:20.368Z,3.41
2023-11-07T01:59:48.790Z,3.39
2023-11-07T02:02:18.704Z,3.37
2023-11-07T02:04:47.214Z,3.37
2023-11-07T02:07:14.366Z,3.37
2023-11-07T02:09:45.720Z,3.40
2023-11-07T02:12:13.337Z,3.39
2023-11-07T02:14:40.448Z,3.37
2023-11-07T02:17:07.587Z,3.34
2023-11-07T02:19:34.757Z,3.35
2023-11-07T02:22:02.207Z,3.36
2023-11-07T02:24:29.733Z,3.37
2023-11-07T02:26:57.863Z,3.38
2023-11-07T02:29:25.355Z,3.39
2023-11-07T02:31:52.429Z,3.42
2023-11-07T02:34:19.316Z,3.46
2023-11-07T02:36:46.825Z,3.55
2023-11-07T02:39:13.765Z,3.65
2023-11-07T02:41:41.057Z,3.79
2023-11-07T02:44:09.721Z,3.87
2023-11-07T02:46:42.369Z,3.92
2023-11-07T02:49:10.904Z,3.95
2023-11-07T02:51:39.047Z,3.98
2023-11-07T02:54:06.307Z,4.01
2023-11-07T02:56:34.097Z,4.03
2023-11-07T02:59:00.999Z,4.06
2023-11-07T03:01:28.023Z,4.08
2023-11-07T03:03:56.915Z,4.08
2023-11-07T03:06:23.942Z,4.09
2023-11-07T03:08:50.940Z,4.10
2023-11-07T03:11:17.847Z,4.11
2023-11-07T03:13:45.844Z,4.13
2023-11-07T03:16:12.621Z,4.14
2023-11-07T03:18:39.602Z,4.15
2023-11-07T03:21:09.113Z,4.16
2023-11-07T03:23:36.428Z,4.17
2023-11-07T03:26:04.883Z,4.18
2023-11-07T03:28:32.342Z,4.21
2023-11-07T03:30:59.214Z,4.23
2023-11-07T03:33:26.152Z,4.26
2023-11-07T03:35:53.712Z,4.28
2023-11-07T03:38:20.522Z,4.30
2023-11-07T03:40:47.516Z,4.34
2023-11-07T03:43:16.620Z,4.39
2023-11-07T03:45:43.808Z,4.48
2023-11-07T03:48:10.873Z,4.58
2023-11-07T03:50:37.876Z,4.61
2023-11-07T03:53:04.844Z,4.64
2023-11-07T03:55:32.437Z,4.70
2023-11-07T03:57:59.481Z,4.73
2023-11-07T04:00:26.586Z,4.78
2023-11-07T04:02:53.527Z,4.79
2023-11-07T04:05:21.034Z,4.79
2023-11-07T04:07:47.949Z,4.78
2023-11-07T04:10:14.854Z,4.74
2023-11-07T04:12:41.782Z,4.69
2023-11-07T04:15:09.695Z,4.65
2023-11-07T04:17:36.968Z,4.63
2023-11-07T04:20:04.607Z,4.59
2023-11-07T04:22:31.692Z,4.58
2023-11-07T04:24:58.478Z,4.58
2023-11-07T04:27:25.457Z,4.56
2023-11-07T04:29:52.298Z,4.54
2023-11-07T04:32:19.407Z,4.51
2023-11-07T04:34:48.164Z,4.50
2023-11-07T04:37:17.069Z,4.50
2023-11-07T04:39:43.956Z,4.50
2023-11-07T04:42:10.924Z,4.52
2023-11-07T04:44:37.969Z,4.54
2023-11-07T04:47:06.066Z,4.57
2023-11-07T04:49:33.293Z,4.60
2023-11-07T04:52:02.546Z,4.62
2023-11-07T04:54:30.208Z,4.66
2023-11-07T04:56:58.122Z,4.71
2023-11-07T04:59:25.071Z,4.75
2023-11-07T05:01:53.382Z,4.79
2023-11-07T05:04:20.502Z,4.84
2023-11-07T05:06:47.558Z,4.89
2023-11-07T05:09:14.750Z,4.92
2023-11-07T05:11:42.038Z,4.93
2023-11-07T05:14:09.541Z,4.94
2023-11-07T05:16:39.547Z,4.96
2023-11-07T05:19:09.576Z,5.00
2023-11-07T05:21:37.134Z,5.03
2023-11-07T05:24:05.098Z,5.04
2023-11-07T05:26:32.210Z,5.04
2023-11-07T05:29:00.114Z,5.05
2023-11-07T05:31:27.227Z,5.06
2023-11-07T05:33:54.273Z,5.07
2023-11-07T05:36:21.272Z,5.06
2023-11-07T05:38:48.180Z,5.06
2023-11-07T05:41:15.306Z,5.06
2023-11-07T05:43:43.478Z,5.08
2023-11-07T05:46:10.386Z,5.09
2023-11-07T05:48:37.919Z,5.08
2023-11-07T05:51:05.576Z,5.09
2023-11-07T05:53:32.496Z,5.11
2023-11-07T05:55:59.940Z,5.11
2023-11-07T05:58:30.484Z,5.10
2023-11-07T06:00:57.844Z,5.08
2023-11-07T06:03:24.815Z,5.07
2023-11-07T06:05:53.987Z,5.06
2023-11-07T06:08:21.080Z,5.07
2023-11-07T06:10:48.321Z,5.08
2023-11-07T06:13:15.769Z,5.09
2023-11-07T06:15:42.657Z,5.12
2023-11-07T06:18:09.983Z,5.14
2023-11-07T06:20:36.989Z,5.13
2023-11-07T06:23:04.004Z,5.13
2023-11-07T06:25:30.987Z,5.13
2023-11-07T06:27:58.324Z,5.13
2023-11-07T06:30:29.999Z,5.14
2023-11-07T06:32:58.135Z,5.16
2023-11-07T06:35:24.970Z,5.18
2023-11-07T06:37:51.748Z,5.24
2023-11-07T06:40:19.711Z,5.31
2023-11-07T06:42:47.712Z,5.37
2023-11-07T06:45:15.402Z,5.41
2023-11-07T06:47:44.299Z,5.46
2023-11-07T06:50:13.624Z,5.51
2023-11-07T06:52:42.940Z,5.56
2023-11-07T06:55:12.857Z,5.60
2023-11-07T06:57:40.449Z,5.66
2023-11-07T07:00:09.500Z,5.72
2023-11-07T07:02:37.580Z,5.77
2023-11-07T07:05:04.820Z,5.81
2023-11-07T07:07:31.892Z,5.86
2023-11-07T07:10:00.946Z,5.93
2023-11-07T07:12:28.089Z,6.04
2023-11-07T07:14:55.111Z,6.18
2023-11-07T07:17:23.164Z,6.32
2023-11-07T07:19:50.193Z,6.50
2023-11-07T07:22:27.987Z,6.71
2023-11-07T07:24:55.854Z,6.93
2023-11-07T07:27:27.439Z,7.10
2023-11-07T07:29:54.659Z,7.29
2023-11-07T07:32:21.640Z,7.48
2023-11-07T07:34:51.477Z,7.67
2023-11-07T07:37:21.367Z,7.87
2023-11-07T07:39:48.228Z,8.05
2023-11-07T07:42:17.725Z,8.20
2023-11-07T07:44:46.101Z,8.32
2023-11-07T07:47:15.865Z,8.43
2023-11-07T07:49:42.834Z,8.54
2023-11-07T07:52:10.057Z,8.66
2023-11-07T07:55:00.035Z,8.81
2023-11-07T07:57:24.959Z,8.92
2023-11-07T07:59:51.913Z,9.00
2023-11-07T08:02:20.164Z,9.05
2023-11-07T08:04:48.050Z,9.12
2023-11-07T08:07:17.977Z,9.25
2023-11-07T08:09:44.987Z,9.40
2023-11-07T08:12:12.701Z,9.57
2023-11-07T08:14:41.363Z,9.76
2023-11-07T08:17:09.962Z,9.96
2023-11-07T08:19:37.093Z,10.16
2023-11-07T08:22:07.429Z,10.37
2023-11-07T08:24:34.358Z,10.58
2023-11-07T08:27:01.777Z,10.77
2023-11-07T08:29:28.606Z,10.96
2023-11-07T08:31:55.525Z,11.15
2023-11-07T08:34:23.081Z,11.32
2023-11-07T08:36:56.868Z,11.49
2023-11-07T08:39:34.365Z,11.68
2023-11-07T08:42:01.296Z,11.86
2023-11-07T08:44:28.209Z,12.06
2023-11-07T08:46:55.387Z,12.24
2023-11-07T08:49:22.324Z,12.43
2023-11-07T08:51:52.069Z,12.62
2023-11-07T08:54:19.083Z,12.81
2023-11-07T08:56:49.725Z,12.98
2023-11-07T08:59:18.256Z,13.13
2023-11-07T09:01:47.626Z,13.25
2023-11-07T09:04:15.138Z,13.37
2023-11-07T09:06:42.117Z,13.48
2023-11-07T09:09:14.834Z,13.57
2023-11-07T09:11:42.516Z,13.60
2023-11-07T09:14:09.866Z,13.63
2023-11-07T09:16:36.793Z,13.66
2023-11-07T09:19:05.214Z,13.69
2023-11-07T09:21:32.420Z,13.71
2023-11-07T09:23:59.275Z,13.74
2023-11-07T09:26:26.145Z,13.79
2023-11-07T09:28:53.085Z,13.85
2023-11-07T09:31:20.038Z,13.91
2023-11-07T09:33:47.352Z,13.93
2023-11-07T09:36:15.894Z,13.95
2023-11-07T09:38:49.603Z,13.92
2023-11-07T09:41:20.039Z,13.95
2023-11-07T09:43:47.798Z,13.93
2023-11-07T09:46:15.193Z,13.98
2023-11-07T09:48:42.507Z,13.98
2023-11-07T09:51:10.544Z,13.86
2023-11-07T09:53:39.628Z,13.88
2023-11-07T09:56:11.168Z,13.91
2023-11-07T09:58:45.819Z,13.97
2023-11-07T10:01:12.764Z,14.05
2023-11-07T10:03:43.749Z,14.11
2023-11-07T10:06:12.849Z,14.19
2023-11-07T10:08:43.348Z,14.28
2023-11-07T10:11:13.092Z,14.39
2023-11-07T10:13:59.710Z,14.50
2023-11-07T10:16:38.108Z,14.64
2023-11-07T10:19:05.527Z,14.67
2023-11-07T10:21:33.797Z,14.70
2023-11-07T10:24:01.380Z,14.76
2023-11-07T10:26:28.680Z,14.84
2023-11-07T10:29:18.192Z,14.96
2023-11-07T10:32:03.290Z,15.14
2023-11-07T10:34:31.338Z,15.18
2023-11-07T10:37:01.924Z,15.26
2023-11-07T10:39:30.638Z,15.42
2023-11-07T10:41:58.045Z,15.57
2023-11-07T10:44:28.758Z,15.67
2023-11-07T10:46:57.927Z,15.69
2023-11-07T10:49:25.725Z,15.67
2023-11-07T10:51:55.472Z,15.63
2023-11-07T10:54:22.730Z,15.73
2023-11-07T10:56:53.620Z,15.84
2023-11-07T10:59:26.283Z,15.84
2023-11-07T11:01:54.742Z,15.84
2023-11-07T11:04:26.042Z,15.92
2023-11-07T11:06:58.468Z,15.91
2023-11-07T11:09:27.986Z,15.93
2023-11-07T11:12:00.138Z,16.02
2023-11-07T11:14:28.111Z,16.02
2023-11-07T11:17:21.841Z,15.97
2023-11-07T11:20:23.039Z,16.04
2023-11-07T11:23:05.771Z,16.06
2023-11-07T11:25:54.159Z,15.96
2023-11-07T11:28:37.496Z,15.97
2023-11-07T11:31:05.271Z,15.99
2023-11-07T11:33:32.322Z,16.03
2023-11-07T11:35:59.473Z,16.00
2023-11-07T11:38:40.190Z,15.98
2023-11-07T11:41:10.632Z,15.97
2023-11-07T11:44:15.997Z,15.82
2023-11-07T11:46:44.430Z,15.74
2023-11-07T11:49:17.001Z,15.76
2023-11-07T11:51:47.171Z,15.81
2023-11-07T11:54:16.862Z,15.93
2023-11-07T11:56:50.123Z,16.05
2023-11-07T11:59:28.936Z,16.06
2023-11-07T12:02:03.132Z,16.04
2023-11-07T12:04:31.954Z,15.99
2023-11-07T12:07:10.861Z,16.11
2023-11-07T12:09:45.205Z,16.31
2023-11-07T12:12:16.103Z,16.43
2023-11-07T12:14:57.170Z,16.44
2023-11-07T12:17:29.353Z,16.35
2023-11-07T12:20:06.663Z,16.28
2023-11-07T12:22:34.689Z,16.22
2023-11-07T12:25:18.684Z,16.29
2023-11-07T12:28:06.302Z,16.40
2023-11-07T12:30:35.051Z,16.45
2023-11-07T12:33:11.274Z,16.36
2023-11-07T12:35:39.404Z,16.16
2023-11-07T12:38:08.201Z,15.98
2023-11-07T12:40:36.869Z,15.91
2023-11-07T12:43:07.383Z,15.96
2023-11-07T12:45:39.254Z,16.07
2023-11-07T12:48:10.317Z,16.12
2023-11-07T12:50:47.233Z,16.23
2023-11-07T12:53:18.494Z,16.34
2023-11-07T12:55:52.584Z,16.42
2023-11-07T12:58:32.421Z,16.53
2023-11-07T13:01:01.456Z,16.63
2023-11-07T13:03:32.208Z,16.68
2023-11-07T13:06:15.403Z,16.70
2023-11-07T13:08:44.963Z,16.72
2023-11-07T13:11:13.085Z,16.70
2023-11-07T13:13:41.396Z,16.68
2023-11-07T13:16:08.593Z,16.57
2023-11-07T13:18:37.650Z,16.36
2023-11-07T13:21:05.986Z,16.18
2023-11-07T13:23:33.070Z,16.06
2023-11-07T13:26:00.059Z,16.06
2023-11-07T13:28:29.076Z,16.08
2023-11-07T13:30:56.307Z,15.97
2023-11-07T13:33:23.303Z,15.84
2023-11-07T13:35:50.382Z,15.63
2023-11-07T13:38:17.734Z,15.44
2023-11-07T13:40:45.806Z,15.26
2023-11-07T13:43:13.054Z,15.12
2023-11-07T13:45:40.116Z,14.97
2023-11-07T13:48:07.349Z,14.79
2023-11-07T13:50:34.354Z,14.65
2023-11-07T13:53:01.400Z,14.52
2023-11-07T13:55:28.605Z,14.41
2023-11-07T13:57:55.842Z,14.31
2023-11-07T14:00:23.587Z,14.23
2023-11-07T14:02:53.566Z,14.13
2023-11-07T14:05:22.010Z,14.05
2023-11-07T14:07:50.988Z,13.97
2023-11-07T14:10:22.129Z,13.89
2023-11-07T14:12:52.968Z,13.80
2023-11-07T14:15:28.646Z,13.72
2023-11-07T14:17:55.660Z,13.63
2023-11-07T14:20:24.149Z,13.58
2023-11-07T14:22:54.216Z,13.56
2023-11-07T14:25:21.185Z,13.58
2023-11-07T14:27:48.239Z,13.54
2023-11-07T14:30:27.619Z,13.46
2023-11-07T14:33:04.547Z,13.35
2023-11-07T14:35:31.552Z,13.24
2023-11-07T14:37:59.009Z,13.11
2023-11-07T14:40:26.856Z,12.98
2023-11-07T14:42:55.264Z,12.84
2023-11-07T14:45:25.075Z,12.69
2023-11-07T14:47:55.108Z,12.54
2023-11-07T14:50:23.028Z,12.39
2023-11-07T14:52:49.986Z,12.23
2023-11-07T14:55:16.973Z,12.05
2023-11-07T14:57:44.559Z,11.86
2023-11-07T15:00:25.016Z,11.69
2023-11-07T15:02:53.620Z,11.52
2023-11-07T15:05:20.659Z,11.36
2023-11-07T15:07:47.601Z,11.21
2023-11-07T15:10:14.625Z,11.07
2023-11-07T15:12:41.609Z,10.93
2023-11-07T15:15:10.913Z,10.77
2023-11-07T15:17:39.196Z,10.62
2023-11-07T15:20:10.398Z,10.47
2023-11-07T15:22:37.576Z,10.32
2023-11-07T15:25:12.274Z,10.17
2023-11-07T15:27:44.312Z,10.04
2023-11-07T15:30:16.862Z,9.91
2023-11-07T15:32:55.321Z,9.78
2023-11-07T15:35:22.900Z,9.64
2023-11-07T15:37:49.807Z,9.51
2023-11-07T15:40:20.374Z,9.39
2023-11-07T15:42:49.028Z,9.25
2023-11-07T15:45:18.882Z,9.13
2023-11-07T15:47:46.651Z,9.00
2023-11-07T15:50:15.667Z,8.88
2023-11-07T15:53:00.088Z,8.79
2023-11-07T15:55:36.119Z,8.67
2023-11-07T15:58:03.161Z,8.55
2023-11-07T16:00:30.432Z,8.43
2023-11-07T16:02:57.777Z,8.31
2023-11-07T16:05:28.322Z,8.20
2023-11-07T16:07:55.416Z,8.10
2023-11-07T16:10:22.407Z,8.00
2023-11-07T16:12:51.396Z,7.88
2023-11-07T16:15:18.636Z,7.76
2023-11-07T16:17:49.422Z,7.68
2023-11-07T16:20:21.312Z,7.59
2023-11-07T16:22:49.251Z,7.50
2023-11-07T16:25:16.473Z,7.40
2023-11-07T16:27:43.624Z,7.28
2023-11-07T16:30:11.541Z,7.17
2023-11-07T16:32:38.752Z,7.07
2023-11-07T16:35:05.963Z,7.00
2023-11-07T16:37:36.335Z,6.94
2023-11-07T16:40:08.897Z,6.85
2023-11-07T16:42:36.635Z,6.78
2023-11-07T16:45:08.885Z,6.72
2023-11-07T16:47:36.896Z,6.64
2023-11-07T16:50:04.119Z,6.57
2023-11-07T16:52:31.073Z,6.51
2023-11-07T16:54:58.009Z,6.46
2023-11-07T16:57:25.014Z,6.40
2023-11-07T16:59:52.704Z,6.35
2023-11-07T17:02:20.195Z,6.30
2023-11-07T17:04:47.385Z,6.25
2023-11-07T17:07:14.849Z,6.19
2023-11-07T17:09:42.119Z,6.13
2023-11-07T17:12:09.107Z,6.08
2023-11-07T17:14:37.543Z,6.02
2023-11-07T17:17:05.529Z,5.96
2023-11-07T17:19:32.549Z,5.89
2023-11-07T17:21:59.529Z,5.82
2023-11-07T17:24:27.890Z,5.76
2023-11-07T17:26:55.389Z,5.68
2023-11-07T17:29:22.683Z,5.61
2023-11-07T17:31:49.871Z,5.55
2023-11-07T17:34:17.209Z,5.48
2023-11-07T17:36:46.427Z,5.41
2023-11-07T17:39:17.383Z,5.35
2023-11-07T17:41:45.558Z,5.31
2023-11-07T17:44:14.766Z,5.26
2023-11-07T17:46:43.010Z,5.21
2023-11-07T17:49:10.834Z,5.16
2023-11-07T17:51:42.745Z,5.11
2023-11-07T17:54:11.618Z,5.05
2023-11-07T17:56:41.164Z,5.02
2023-11-07T17:59:11.631Z,4.98
2023-11-07T18:01:39.879Z,4.94
2023-11-07T18:04:07.198Z,4.92
2023-11-07T18:06:34.548Z,4.89
2023-11-07T18:09:01.676Z,4.86
2023-11-07T18:11:33.749Z,4.83
2023-11-07T18:14:00.934Z,4.78
2023-11-07T18:16:28.116Z,4.75
2023-11-07T18:18:58.383Z,4.71
2023-11-07T18:21:27.912Z,4.67
2023-11-07T18:23:55.802Z,4.63
2023-11-07T18:26:23.475Z,4.60
2023-11-07T18:28:51.050Z,4.60
2023-11-07T18:31:18.281Z,4.60
2023-11-07T18:33:48.684Z,4.61
2023-11-07T18:36:15.751Z,4.61
2023-11-07T18:38:42.812Z,4.61
2023-11-07T18:41:09.697Z,4.60
2023-11-07T18:43:37.665Z,4.59
2023-11-07T18:46:05.650Z,4.56
2023-11-07T18:48:33.675Z,4.54
2023-11-07T18:51:00.794Z,4.52
2023-11-07T18:53:40.676Z,4.49
2023-11-07T18:56:12.946Z,4.47
2023-11-07T18:58:39.989Z,4.44
2023-11-07T19:01:08.608Z,4.39
2023-11-07T19:03:35.868Z,4.35
2023-11-07T19:06:03.595Z,4.32
2023-11-07T19:08:31.477Z,4.29
2023-11-07T19:11:00.053Z,4.27
2023-11-07T19:13:27.059Z,4.24
2023-11-07T19:15:54.961Z,4.23
2023-11-07T19:18:23.052Z,4.25
2023-11-07T19:20:50.095Z,4.28
2023-11-07T19:23:19.505Z,4.30
2023-11-07T19:25:47.143Z,4.36
2023-11-07T19:28:14.155Z,4.41
2023-11-07T19:30:41.173Z,4.50
2023-11-07T19:33:09.468Z,4.58
2023-11-07T19:35:36.719Z,4.64
2023-11-07T19:38:03.603Z,4.73
2023-11-07T19:40:32.008Z,4.79
2023-11-07T19:42:59.473Z,4.83
2023-11-07T19:45:26.725Z,4.88
2023-11-07T19:47:53.652Z,4.96
2023-11-07T19:50:20.944Z,5.02
2023-11-07T19:52:54.301Z,5.07
2023-11-07T19:55:29.831Z,5.09
2023-11-07T19:57:56.820Z,5.12
2023-11-07T20:00:27.238Z,5.19
2023-11-07T20:02:54.566Z,5.23
2023-11-07T20:05:21.913Z,5.27
2023-11-07T20:07:55.933Z,5.33
2023-11-07T20:10:25.289Z,5.39
2023-11-07T20:12:52.836Z,5.42
2023-11-07T20:15:20.007Z,5.40
2023-11-07T20:17:47.351Z,5.40
2023-11-07T20:20:15.190Z,5.41
2023-11-07T20:22:44.172Z,5.43
2023-11-07T20:25:11.478Z,5.44
2023-11-07T20:27:39.272Z,5.46
2023-11-07T20:30:08.342Z,5.45
2023-11-07T20:32:35.314Z,5.45
2023-11-07T20:35:03.058Z,5.45
2023-11-07T20:37:30.085Z,5.46
2023-11-07T20:39:57.314Z,5.49
2023-11-07T20:42:25.809Z,5.54
2023-11-07T20:45:00.564Z,5.61
2023-11-07T20:47:31.563Z,5.66
2023-11-07T20:50:06.576Z,5.70
2023-11-07T20:52:35.994Z,5.71
2023-11-07T20:55:03.178Z,5.72
2023-11-07T20:57:33.211Z,5.73
2023-11-07T21:00:00.227Z,5.73
2023-11-07T21:02:28.098Z,5.73
2023-11-07T21:04:55.345Z,5.71
2023-11-07T21:07:22.954Z,5.69
2023-11-07T21:09:51.239Z,5.66
2023-11-07T21:12:19.572Z,5.63
2023-11-07T21:14:46.612Z,5.62
2023-11-07T21:17:13.612Z,5.60
2023-11-07T21:19:41.371Z,5.59
2023-11-07T21:22:08.471Z,5.58
2023-11-07T21:24:35.607Z,5.59
2023-11-07T21:27:04.204Z,5.59
2023-11-07T21:29:33.423Z,5.58
2023-11-07T21:32:00.405Z,5.57
2023-11-07T21:34:27.741Z,5.57
2023-11-07T21:36:55.248Z,5.56
2023-11-07T21:39:23.634Z,5.59
2023-11-07T21:41:51.371Z,5.62
2023-11-07T21:44:22.178Z,5.65
2023-11-07T21:46:49.127Z,5.67
2023-11-07T21:49:16.349Z,5.65
2023-11-07T21:51:43.972Z,5.65
2023-11-07T21:54:11.778Z,5.64
2023-11-07T21:56:39.520Z,5.64
2023-11-07T21:59:09.493Z,5.64
2023-11-07T22:01:36.486Z,5.64
2023-11-07T22:04:05.801Z,5.65
2023-11-07T22:06:33.117Z,5.67
2023-11-07T22:09:00.272Z,5.69
2023-11-07T22:11:27.215Z,5.69
2023-11-07T22:13:56.987Z,5.68
2023-11-07T22:16:23.799Z,5.69
2023-11-07T22:18:50.579Z,5.70
2023-11-07T22:21:18.425Z,5.70
2023-11-07T22:23:45.708Z,5.68
2023-11-07T22:26:13.127Z,5.64
2023-11-07T22:28:40.586Z,5.59
2023-11-07T22:31:07.606Z,5.56
2023-11-07T22:33:34.600Z,5.53
2023-11-07T22:36:01.691Z,5.49
2023-11-07T22:38:28.522Z,5.44
2023-11-07T22:40:55.741Z,5.39
2023-11-07T22:43:22.768Z,5.34
2023-11-07T22:45:49.833Z,5.30
2023-11-07T22:48:19.316Z,5.28
2023-11-07T22:50:46.780Z,5.25
2023-11-07T22:53:14.387Z,5.23
2023-11-07T22:55:41.392Z,5.21
2023-11-07T22:58:08.737Z,5.20
2023-11-07T23:00:38.864Z,5.21
2023-11-07T23:03:14.126Z,5.22
2023-11-07T23:05:42.440Z,5.23
2023-11-07T23:08:10.284Z,5.23
2023-11-07T23:10:38.352Z,5.24
2023-11-07T23:13:08.775Z,5.23
2023-11-07T23:15:39.509Z,5.22
2023-11-07T23:18:07.792Z,5.24
2023-11-07T23:20:35.849Z,5.29
2023-11-07T23:23:03.567Z,5.33
2023-11-07T23:25:30.544Z,5.34
2023-11-07T23:27:57.427Z,5.35
2023-11-07T23:30:24.317Z,5.37
2023-11-07T23:32:51.678Z,5.39
2023-11-07T23:35:18.947Z,5.40
2023-11-07T23:37:46.030Z,5.41
2023-11-07T23:40:13.343Z,5.40
2023-11-07T23:42:43.814Z,5.36
2023-11-07T23:45:11.134Z,5.31
2023-11-07T23:47:40.351Z,5.31
2023-11-07T23:50:08.065Z,5.31
2023-11-07T23:52:35.672Z,5.30
2023-11-07T23:55:03.592Z,5.31
2023-11-07T23:57:30.895Z,5.31
2023-11-07T23:59:57.831Z,5.34
